Time,TemperatureF,DewpointF,PressureIn,WindDirection,WindDirectionDegrees,WindSpeedMPH,WindSpeedGustMPH,Humidity,HourlyPrecipIn,Conditions,Clouds,dailyrainin,SoftwareType,DateUTC
2013-03-14 00:00:00,29.7,27.7,29.76,ESE,121,0.0,3.0,92,0.00,,,0.01,Wunderground v.1.15,2013-03-14 04:00:00,
2013-03-14 00:01:00,29.7,27.7,29.76,ESE,121,0.0,1.0,92,0.00,,,0.01,Wunderground v.1.15,2013-03-14 04:01:00,
2013-03-14 00:06:00,29.7,27.7,29.76,ESE,121,0.0,1.0,92,0.00,,,0.01,Wunderground v.1.15,2013-03-14 04:06:00,
2013-03-14 00:11:00,29.8,27.8,29.76,ESE,121,1.0,2.0,92,0.00,,,0.01,Wunderground v.1.15,2013-03-14 04:11:00,
2013-03-14 00:16:00,29.7,27.7,29.76,ESE,121,0.0,2.0,92,0.00,,,0.01,Wunderground v.1.15,2013-03-14 04:16:00,
2013-03-14 00:21:00,29.7,27.7,29.76,ESE,121,0.0,1.0,92,0.00,,,0.01,Wunderground v.1.15,2013-03-14 04:21:00,
2013-03-14 00:27:00,30.0,28.0,29.75,ESE,121,0.0,1.0,92,0.00,,,0.01,Wunderground v.1.15,2013-03-14 04:27:00,
2013-03-14 00:33:00,30.0,28.0,29.75,East,98,0.0,3.0,92,0.00,,,0.01,Wunderground v.1.15,2013-03-14 04:33:00,
2013-03-14 00:39:00,30.6,27.2,29.75,WNW,300,4.0,7.0,87,0.00,,,0.01,Wunderground v.1.15,2013-03-14 04:39:00,
2013-03-14 00:45:00,31.0,26.1,29.75,WNW,300,6.0,6.0,82,0.00,,,0.01,Wunderground v.1.15,2013-03-14 04:45:00,
2013-03-14 00:51:00,31.8,23.5,29.75,NW,314,2.0,3.0,71,0.00,,,0.01,Wunderground v.1.15,2013-03-14 04:51:00,
2013-03-14 00:58:00,32.4,21.9,29.75,NW,312,4.0,6.0,65,0.00,,,0.01,Wunderground v.1.15,2013-03-14 04:58:00,
2013-03-14 01:03:00,32.8,20.8,29.75,NW,325,3.0,6.0,61,0.00,,,0.01,Wunderground v.1.15,2013-03-14 05:03:00,
2013-03-14 01:09:00,32.9,20.9,29.75,NW,325,0.0,6.0,61,0.00,,,0.01,Wunderground v.1.15,2013-03-14 05:09:00,
2013-03-14 01:14:00,32.8,20.8,29.75,NW,325,0.0,4.0,61,0.00,,,0.01,Wunderground v.1.15,2013-03-14 05:14:00,
2013-03-14 01:19:00,32.7,21.9,29.75,NW,325,2.0,4.0,64,0.00,,,0.01,Wunderground v.1.15,2013-03-14 05:19:00,
2013-03-14 01:25:00,32.5,21.7,29.75,WNW,288,3.0,5.0,64,0.00,,,0.01,Wunderground v.1.15,2013-03-14 05:25:00,
2013-03-14 01:30:00,32.8,21.2,29.75,West,281,3.0,3.0,62,0.00,,,0.01,Wunderground v.1.15,2013-03-14 05:30:00,
2013-03-14 01:36:00,32.5,21.7,29.75,West,281,2.0,3.0,64,0.00,,,0.01,Wunderground v.1.15,2013-03-14 05:36:00,
2013-03-14 01:42:00,32.4,21.6,29.75,West,281,0.0,2.0,64,0.00,,,0.01,Wunderground v.1.15,2013-03-14 05:42:00,
2013-03-14 01:48:00,32.4,21.2,29.75,West,281,3.0,3.0,63,0.00,,,0.01,Wunderground v.1.15,2013-03-14 05:48:00,
2013-03-14 01:53:00,32.2,22.1,29.75,West,281,2.0,2.0,66,0.00,,,0.01,Wunderground v.1.15,2013-03-14 05:53:00,
2013-03-14 01:58:00,32.2,22.5,29.75,West,274,3.0,4.0,67,0.00,,,0.01,Wunderground v.1.15,2013-03-14 05:58:00,
2013-03-14 02:04:00,32.5,21.7,29.75,South,190,0.0,3.0,64,0.00,,,0.01,Wunderground v.1.15,2013-03-14 06:04:00,
2013-03-14 02:09:00,32.5,21.7,29.75,South,190,1.0,3.0,64,0.00,,,0.01,Wunderground v.1.15,2013-03-14 06:09:00,
2013-03-14 02:14:00,32.8,19.6,29.75,South,190,2.0,3.0,58,0.00,,,0.01,Wunderground v.1.15,2013-03-14 06:14:00,
2013-03-14 02:19:00,32.9,21.3,29.75,South,190,0.0,3.0,62,0.00,,,0.01,Wunderground v.1.15,2013-03-14 06:19:00,
2013-03-14 02:24:00,32.5,22.4,29.75,South,190,1.0,3.0,66,0.00,,,0.01,Wunderground v.1.15,2013-03-14 06:24:00,
2013-03-14 02:29:00,32.1,23.1,29.75,South,189,3.0,4.0,69,0.00,,,0.01,Wunderground v.1.15,2013-03-14 06:29:00,
2013-03-14 02:34:00,32.1,23.4,29.75,South,182,2.0,5.0,70,0.00,,,0.01,Wunderground v.1.15,2013-03-14 06:34:00,
2013-03-14 02:39:00,31.9,23.6,29.75,South,182,0.0,5.0,71,0.00,,,0.01,Wunderground v.1.15,2013-03-14 06:39:00,
2013-03-14 02:44:00,31.8,23.5,29.74,South,182,2.0,3.0,71,0.00,,,0.01,Wunderground v.1.15,2013-03-14 06:44:00,
2013-03-14 02:49:00,31.6,23.6,29.74,South,182,2.0,4.0,72,0.00,,,0.01,Wunderground v.1.15,2013-03-14 06:49:00,
2013-03-14 02:54:00,31.3,24.0,29.74,South,182,5.0,5.0,74,0.00,,,0.01,Wunderground v.1.15,2013-03-14 06:54:00,
2013-03-14 02:59:00,31.0,24.0,29.74,South,182,2.0,5.0,75,0.00,,,0.01,Wunderground v.1.15,2013-03-14 06:59:00,
2013-03-14 03:04:00,31.0,23.0,29.74,South,182,1.0,3.0,72,0.00,,,0.01,Wunderground v.1.15,2013-03-14 07:04:00,
2013-03-14 03:09:00,31.3,22.3,29.74,South,181,3.0,5.0,69,0.00,,,0.01,Wunderground v.1.15,2013-03-14 07:09:00,
2013-03-14 03:14:00,31.3,22.0,29.74,South,179,1.0,5.0,68,0.00,,,0.01,Wunderground v.1.15,2013-03-14 07:14:00,
2013-03-14 03:19:00,31.2,22.2,29.74,SSE,168,3.0,8.0,69,0.00,,,0.01,Wunderground v.1.15,2013-03-14 07:19:00,
2013-03-14 03:24:00,31.2,21.9,29.74,SSE,167,1.0,6.0,68,0.00,,,0.01,Wunderground v.1.15,2013-03-14 07:24:00,
2013-03-14 03:29:00,31.2,21.9,29.74,SSW,193,4.0,7.0,68,0.00,,,0.01,Wunderground v.1.15,2013-03-14 07:29:00,
2013-03-14 03:34:00,31.6,21.5,29.74,SSW,198,4.0,11.0,66,0.00,,,0.01,Wunderground v.1.15,2013-03-14 07:34:00,
2013-03-14 03:40:00,31.6,21.2,29.74,SSW,207,9.0,11.0,65,0.00,,,0.01,Wunderground v.1.15,2013-03-14 07:40:00,
2013-03-14 03:45:00,31.6,21.2,29.73,SSW,204,9.0,13.0,65,0.00,,,0.01,Wunderground v.1.15,2013-03-14 07:45:00,
2013-03-14 03:50:00,31.6,21.2,29.73,SSW,200,4.0,13.0,65,0.00,,,0.01,Wunderground v.1.15,2013-03-14 07:50:00,
2013-03-14 03:55:00,31.6,20.8,29.73,SSW,198,6.0,11.0,64,0.00,,,0.01,Wunderground v.1.15,2013-03-14 07:55:00,
2013-03-14 04:00:00,31.5,20.7,29.73,SSW,198,4.0,11.0,64,0.00,,,0.01,Wunderground v.1.15,2013-03-14 08:00:00,
2013-03-14 04:05:00,31.3,20.5,29.73,SSW,204,6.0,12.0,64,0.00,,,0.01,Wunderground v.1.15,2013-03-14 08:05:00,
2013-03-14 04:10:00,31.3,20.5,29.73,SSW,211,4.0,12.0,64,0.00,,,0.01,Wunderground v.1.15,2013-03-14 08:10:00,
2013-03-14 04:15:00,31.3,20.5,29.73,SSW,211,7.0,10.0,64,0.00,,,0.01,Wunderground v.1.15,2013-03-14 08:15:00,
2013-03-14 04:20:00,31.2,20.4,29.73,SSW,204,3.0,10.0,64,0.00,,,0.01,Wunderground v.1.15,2013-03-14 08:20:00,
2013-03-14 04:25:00,31.2,20.1,29.73,SSW,209,6.0,11.0,63,0.00,,,0.01,Wunderground v.1.15,2013-03-14 08:25:00,
2013-03-14 04:30:00,31.2,20.4,29.73,SSW,211,5.0,11.0,64,0.00,,,0.01,Wunderground v.1.15,2013-03-14 08:30:00,
2013-03-14 04:35:00,31.0,19.9,29.73,SSW,211,5.0,8.0,63,0.00,,,0.01,Wunderground v.1.15,2013-03-14 08:35:00,
2013-03-14 04:40:00,31.0,19.9,29.73,SW,227,4.0,11.0,63,0.00,,,0.01,Wunderground v.1.15,2013-03-14 08:40:00,
2013-03-14 04:45:00,31.0,19.5,29.73,SW,216,5.0,12.0,62,0.00,,,0.01,Wunderground v.1.15,2013-03-14 08:45:00,
2013-03-14 04:50:00,30.9,19.4,29.73,SW,236,5.0,12.0,62,0.00,,,0.01,Wunderground v.1.15,2013-03-14 08:50:00,
2013-03-14 04:55:00,30.9,19.4,29.73,WSW,238,4.0,10.0,62,0.00,,,0.01,Wunderground v.1.15,2013-03-14 08:55:00,
2013-03-14 05:00:00,30.9,19.8,29.73,SW,235,4.0,10.0,63,0.00,,,0.01,Wunderground v.1.15,2013-03-14 09:00:00,
2013-03-14 05:05:00,30.7,19.6,29.73,SW,234,4.0,5.0,63,0.00,,,0.01,Wunderground v.1.15,2013-03-14 09:05:00,
2013-03-14 05:10:00,30.7,19.6,29.73,SW,227,3.0,9.0,63,0.00,,,0.01,Wunderground v.1.15,2013-03-14 09:10:00,
2013-03-14 05:15:00,30.7,18.8,29.74,SSW,209,3.0,7.0,61,0.00,,,0.01,Wunderground v.1.15,2013-03-14 09:15:00,
2013-03-14 05:20:00,30.7,19.2,29.74,SW,215,2.0,4.0,62,0.00,,,0.01,Wunderground v.1.15,2013-03-14 09:20:00,
2013-03-14 05:25:00,30.7,19.6,29.74,SW,221,0.0,6.0,63,0.00,,,0.01,Wunderground v.1.15,2013-03-14 09:25:00,
2013-03-14 05:30:00,30.6,19.5,29.74,SW,221,0.0,2.0,63,0.00,,,0.01,Wunderground v.1.15,2013-03-14 09:30:00,
2013-03-14 05:35:00,30.6,19.5,29.74,SW,221,2.0,4.0,63,0.00,,,0.01,Wunderground v.1.15,2013-03-14 09:35:00,
2013-03-14 05:40:00,30.6,19.5,29.74,SW,221,0.0,2.0,63,0.00,,,0.01,Wunderground v.1.15,2013-03-14 09:40:00,
2013-03-14 05:45:00,30.6,19.5,29.74,SW,221,0.0,2.0,63,0.00,,,0.00,Wunderground v.1.15,2013-03-14 09:45:00,
2013-03-14 05:50:00,30.4,19.7,29.74,SW,221,0.0,0.0,64,0.00,,,0.00,Wunderground v.1.15,2013-03-14 09:50:00,
2013-03-14 05:55:00,30.3,19.6,29.74,SW,221,0.0,0.0,64,0.00,,,0.00,Wunderground v.1.15,2013-03-14 09:55:00,
2013-03-14 06:00:00,30.3,19.6,29.74,SW,221,1.0,1.0,64,0.00,,,0.00,Wunderground v.1.15,2013-03-14 10:00:00,
2013-03-14 06:05:00,30.0,19.3,29.74,SW,221,0.0,3.0,64,0.00,,,0.00,Wunderground v.1.15,2013-03-14 10:05:00,
2013-03-14 06:10:00,29.8,16.8,29.74,WSW,244,2.0,4.0,58,0.00,,,0.00,Wunderground v.1.15,2013-03-14 10:10:00,
2013-03-14 06:15:00,30.1,17.1,29.74,WSW,250,5.0,5.0,58,0.00,,,0.00,Wunderground v.1.15,2013-03-14 10:15:00,
2013-03-14 06:20:00,30.3,17.3,29.74,WSW,250,0.0,2.0,58,0.00,,,0.00,Wunderground v.1.15,2013-03-14 10:20:00,
2013-03-14 06:25:00,30.1,17.5,29.74,WSW,250,0.0,2.0,59,0.00,,,0.00,Wunderground v.1.15,2013-03-14 10:25:00,
2013-03-14 06:30:00,30.0,17.0,29.74,WSW,250,0.0,1.0,58,0.00,,,0.00,Wunderground v.1.15,2013-03-14 10:30:00,
2013-03-14 06:35:00,30.0,16.6,29.74,WSW,250,0.0,2.0,57,0.00,,,0.00,Wunderground v.1.15,2013-03-14 10:35:00,
2013-03-14 06:40:00,30.0,16.6,29.74,WSW,250,2.0,2.0,57,0.00,,,0.00,Wunderground v.1.15,2013-03-14 10:40:00,
2013-03-14 06:45:00,30.0,17.0,29.74,West,260,0.0,6.0,58,0.00,,,0.00,Wunderground v.1.15,2013-03-14 10:45:00,
2013-03-14 06:51:00,29.8,16.8,29.74,NW,317,4.0,13.0,58,0.00,,,0.00,Wunderground v.1.15,2013-03-14 10:51:00,
2013-03-14 06:56:00,29.8,16.4,29.75,NW,307,5.0,13.0,57,0.00,,,0.00,Wunderground v.1.15,2013-03-14 10:56:00,
2013-03-14 07:01:00,29.7,16.7,29.75,NW,307,6.0,9.0,58,0.00,,,0.00,Wunderground v.1.15,2013-03-14 11:01:00,
2013-03-14 07:06:00,29.4,16.4,29.75,NW,325,4.0,14.0,58,0.00,,,0.00,Wunderground v.1.15,2013-03-14 11:06:00,
2013-03-14 07:12:00,29.3,16.3,29.75,WNW,297,6.0,11.0,58,0.00,,,0.00,Wunderground v.1.15,2013-03-14 11:12:00,
2013-03-14 07:17:00,29.0,16.4,29.75,WNW,292,11.0,14.0,59,0.00,,,0.00,Wunderground v.1.15,2013-03-14 11:17:00,
2013-03-14 07:22:00,28.8,15.5,29.75,WNW,292,2.0,10.0,57,0.00,,,0.00,Wunderground v.1.15,2013-03-14 11:22:00,
2013-03-14 07:27:00,29.0,15.7,29.76,NW,311,3.0,13.0,57,0.00,,,0.00,Wunderground v.1.15,2013-03-14 11:27:00,
2013-03-14 07:32:00,28.7,15.0,29.76,NW,320,7.0,9.0,56,0.00,,,0.00,Wunderground v.1.15,2013-03-14 11:32:00,
2013-03-14 07:37:00,28.5,14.8,29.76,NW,309,2.0,11.0,56,0.00,,,0.00,Wunderground v.1.15,2013-03-14 11:37:00,
2013-03-14 07:42:00,28.4,15.1,29.76,NW,317,5.0,9.0,57,0.00,,,0.00,Wunderground v.1.15,2013-03-14 11:42:00,
2013-03-14 07:47:00,28.2,14.9,29.76,NW,314,12.0,14.0,57,0.00,,,0.00,Wunderground v.1.15,2013-03-14 11:47:00,
2013-03-14 07:52:00,27.9,16.2,29.76,West,265,7.0,11.0,61,0.00,,,0.00,Wunderground v.1.15,2013-03-14 11:52:00,
2013-03-14 07:57:00,27.3,16.7,29.77,West,279,9.0,14.0,64,0.00,,,0.00,Wunderground v.1.15,2013-03-14 11:57:00,
2013-03-14 08:02:00,27.0,16.8,29.77,WNW,284,2.0,7.0,65,0.00,,,0.00,Wunderground v.1.15,2013-03-14 12:02:00,
2013-03-14 08:07:00,27.0,16.4,29.77,WNW,284,1.0,7.0,64,0.00,,,0.00,Wunderground v.1.15,2013-03-14 12:07:00,
2013-03-14 08:12:00,27.3,13.7,29.77,WNW,287,3.0,11.0,56,0.00,,,0.00,Wunderground v.1.15,2013-03-14 12:12:00,
2013-03-14 08:17:00,27.8,13.3,29.77,WNW,290,5.0,11.0,54,0.00,,,0.00,Wunderground v.1.15,2013-03-14 12:17:00,
2013-03-14 08:22:00,27.9,13.8,29.77,WNW,290,2.0,7.0,55,0.00,,,0.00,Wunderground v.1.15,2013-03-14 12:22:00,
2013-03-14 08:28:00,27.9,12.5,29.78,NW,313,7.0,15.0,52,0.00,,,0.00,Wunderground v.1.15,2013-03-14 12:28:00,
2013-03-14 08:33:00,27.9,13.0,29.78,NW,313,9.0,11.0,53,0.00,,,0.00,Wunderground v.1.15,2013-03-14 12:33:00,
2013-03-14 08:38:00,27.6,12.2,29.78,NW,307,5.0,18.0,52,0.00,,,0.00,Wunderground v.1.15,2013-03-14 12:38:00,
2013-03-14 08:43:00,27.2,13.6,29.78,NW,325,10.0,17.0,56,0.00,,,0.00,Wunderground v.1.15,2013-03-14 12:43:00,
2013-03-14 08:48:00,26.9,14.1,29.78,NW,325,4.0,17.0,58,0.00,,,0.00,Wunderground v.1.15,2013-03-14 12:48:00,
2013-03-14 08:53:00,26.9,12.9,29.78,NW,325,5.0,16.0,55,0.00,,,0.00,Wunderground v.1.15,2013-03-14 12:53:00,
2013-03-14 08:58:00,27.0,12.1,29.79,NW,325,5.0,16.0,53,0.00,,,0.00,Wunderground v.1.15,2013-03-14 12:58:00,
2013-03-14 09:03:00,27.2,12.3,29.79,NW,325,11.0,11.0,53,0.00,,,0.00,Wunderground v.1.15,2013-03-14 13:03:00,
2013-03-14 09:08:00,27.2,13.1,29.79,NW,325,3.0,11.0,55,0.00,,,0.00,Wunderground v.1.15,2013-03-14 13:08:00,
2013-03-14 09:13:00,27.0,13.4,29.79,NW,325,6.0,9.0,56,0.00,,,0.00,Wunderground v.1.15,2013-03-14 13:13:00,
2013-03-14 09:18:00,27.3,14.5,29.79,NW,325,0.0,9.0,58,0.00,,,0.00,Wunderground v.1.15,2013-03-14 13:18:00,
2013-03-14 09:23:00,27.6,14.7,29.79,NW,325,0.0,4.0,58,0.00,,,0.00,Wunderground v.1.15,2013-03-14 13:23:00,
2013-03-14 09:28:00,27.9,15.4,29.79,NW,325,3.0,5.0,59,0.00,,,0.00,Wunderground v.1.15,2013-03-14 13:28:00,
2013-03-14 09:34:00,28.1,16.0,29.79,NW,325,0.0,5.0,60,0.00,,,0.00,Wunderground v.1.15,2013-03-14 13:34:00,
2013-03-14 09:39:00,28.2,16.1,29.79,NW,325,1.0,5.0,60,0.00,,,0.00,Wunderground v.1.15,2013-03-14 13:39:00,
2013-03-14 09:44:00,28.2,16.5,29.80,NW,325,0.0,3.0,61,0.00,,,0.00,Wunderground v.1.15,2013-03-14 13:44:00,
2013-03-14 09:49:00,28.4,15.5,29.80,NW,325,0.0,3.0,58,0.00,,,0.00,Wunderground v.1.15,2013-03-14 13:49:00,
2013-03-14 09:54:00,28.1,15.2,29.80,NW,325,0.0,2.0,58,0.00,,,0.00,Wunderground v.1.15,2013-03-14 13:54:00,
2013-03-14 09:59:00,27.6,14.7,29.80,NW,325,0.0,2.0,58,0.00,,,0.00,Wunderground v.1.15,2013-03-14 13:59:00,
2013-03-14 10:04:00,27.5,14.6,29.80,NW,325,2.0,3.0,58,0.00,,,0.00,Wunderground v.1.15,2013-03-14 14:04:00,
2013-03-14 10:09:00,27.6,14.7,29.80,NW,325,0.0,3.0,58,0.00,,,0.00,Wunderground v.1.15,2013-03-14 14:09:00,
2013-03-14 10:14:00,28.1,15.2,29.79,NW,325,0.0,2.0,58,0.00,,,0.00,Wunderground v.1.15,2013-03-14 14:14:00,
2013-03-14 10:19:00,28.5,15.6,29.79,North,9,2.0,7.0,58,0.00,,,0.00,Wunderground v.1.15,2013-03-14 14:19:00,
2013-03-14 10:24:00,28.4,15.5,29.79,NNE,14,0.0,4.0,58,0.00,,,0.00,Wunderground v.1.15,2013-03-14 14:24:00,
2013-03-14 10:29:00,28.8,15.1,29.79,NNE,17,2.0,5.0,56,0.00,,,0.00,Wunderground v.1.15,2013-03-14 14:29:00,
2013-03-14 10:34:00,29.3,15.9,29.79,ENE,69,9.0,9.0,57,0.00,,,0.00,Wunderground v.1.15,2013-03-14 14:34:00,
2013-03-14 10:39:00,29.0,16.1,29.79,NE,38,6.0,13.0,58,0.00,,,0.00,Wunderground v.1.15,2013-03-14 14:39:00,
2013-03-14 10:43:00,28.8,16.3,29.79,NE,44,12.0,12.0,59,0.00,,,0.00,Wunderground v.1.15,2013-03-14 14:43:00,
2013-03-14 10:48:00,28.8,17.0,29.79,NNE,27,7.0,14.0,61,0.00,,,0.00,Wunderground v.1.15,2013-03-14 14:48:00,
2013-03-14 10:53:00,29.0,17.2,29.79,North,355,2.0,10.0,61,0.00,,,0.00,Wunderground v.1.15,2013-03-14 14:53:00,
2013-03-14 10:59:00,29.0,15.2,29.79,NNE,15,7.0,14.0,56,0.00,,,0.00,Wunderground v.1.15,2013-03-14 14:59:00,
2013-03-14 11:04:00,29.1,17.7,29.79,North,349,3.0,12.0,62,0.00,,,0.00,Wunderground v.1.15,2013-03-14 15:04:00,
2013-03-14 11:09:00,29.0,17.2,29.79,North,355,7.0,13.0,61,0.00,,,0.00,Wunderground v.1.15,2013-03-14 15:09:00,
2013-03-14 11:14:00,28.4,17.4,29.79,NNE,30,10.0,16.0,63,0.00,,,0.00,Wunderground v.1.15,2013-03-14 15:14:00,
2013-03-14 11:19:00,28.2,17.6,29.79,North,350,4.0,16.0,64,0.00,,,0.00,Wunderground v.1.15,2013-03-14 15:19:00,
2013-03-14 11:24:00,27.8,17.2,29.79,North,5,6.0,14.0,64,0.00,,,0.00,Wunderground v.1.15,2013-03-14 15:24:00,
2013-03-14 11:29:00,27.0,15.7,29.80,North,360,5.0,14.0,62,0.00,,,0.00,Wunderground v.1.15,2013-03-14 15:29:00,
2013-03-14 11:34:00,26.6,14.9,29.80,NNE,17,10.0,14.0,61,0.00,,,0.00,Wunderground v.1.15,2013-03-14 15:34:00,
2013-03-14 11:39:00,26.4,15.1,29.80,NNE,30,6.0,14.0,62,0.00,,,0.00,Wunderground v.1.15,2013-03-14 15:39:00,
2013-03-14 11:44:00,26.3,13.9,29.80,NE,53,11.0,16.0,59,0.00,,,0.00,Wunderground v.1.15,2013-03-14 15:44:00,
2013-03-14 11:49:00,25.8,13.4,29.80,ENE,63,6.0,16.0,59,0.00,,,0.00,Wunderground v.1.15,2013-03-14 15:49:00,
2013-03-14 11:54:00,26.0,13.2,29.80,NE,51,4.0,14.0,58,0.00,,,0.00,Wunderground v.1.15,2013-03-14 15:54:00,
2013-03-14 11:59:00,25.7,12.9,29.80,NNE,12,7.0,14.0,58,0.00,,,0.00,Wunderground v.1.15,2013-03-14 15:59:00,
2013-03-14 12:04:00,26.0,13.2,29.80,NE,38,8.0,13.0,58,0.00,,,0.00,Wunderground v.1.15,2013-03-14 16:04:00,
2013-03-14 12:09:00,26.0,13.2,29.80,NNE,17,9.0,13.0,58,0.00,,,0.00,Wunderground v.1.15,2013-03-14 16:09:00,
2013-03-14 12:15:00,26.0,12.4,29.79,NE,51,8.0,16.0,56,0.00,,,0.00,Wunderground v.1.15,2013-03-14 16:15:00,
2013-03-14 12:20:00,26.0,12.0,29.79,NE,49,13.0,13.0,55,0.00,,,0.00,Wunderground v.1.15,2013-03-14 16:20:00,
2013-03-14 12:25:00,26.3,13.1,29.79,NNE,26,6.0,15.0,57,0.00,,,0.00,Wunderground v.1.15,2013-03-14 16:25:00,
2013-03-14 12:30:00,27.0,13.8,29.79,NE,44,11.0,12.0,57,0.00,,,0.00,Wunderground v.1.15,2013-03-14 16:30:00,
2013-03-14 12:35:00,26.9,12.0,29.79,NE,52,11.0,16.0,53,0.00,,,0.00,Wunderground v.1.15,2013-03-14 16:35:00,
2013-03-14 12:40:00,26.9,12.9,29.79,North,360,5.0,10.0,55,0.00,,,0.00,Wunderground v.1.15,2013-03-14 16:40:00,
2013-03-14 12:45:00,27.0,11.7,29.79,North,5,4.0,14.0,52,0.00,,,0.00,Wunderground v.1.15,2013-03-14 16:45:00,
2013-03-14 12:50:00,27.2,13.1,29.79,North,360,6.0,12.0,55,0.00,,,0.00,Wunderground v.1.15,2013-03-14 16:50:00,
2013-03-14 12:56:00,27.5,12.6,29.79,North,360,14.0,15.0,53,0.00,,,0.00,Wunderground v.1.15,2013-03-14 16:56:00,
2013-03-14 13:01:00,27.6,13.5,29.79,North,5,10.0,10.0,55,0.00,,,0.00,Wunderground v.1.15,2013-03-14 17:01:00,
2013-03-14 13:06:00,27.3,11.1,29.79,NE,40,12.0,18.0,50,0.00,,,0.00,Wunderground v.1.15,2013-03-14 17:06:00,
2013-03-14 13:11:00,27.3,12.0,29.79,North,355,2.0,13.0,52,0.00,,,0.00,Wunderground v.1.15,2013-03-14 17:11:00,
2013-03-14 13:17:00,27.6,12.7,29.79,NNE,21,10.0,16.0,53,0.00,,,0.00,Wunderground v.1.15,2013-03-14 17:17:00,
2013-03-14 13:22:00,27.0,10.8,29.79,North,360,12.0,16.0,50,0.00,,,0.00,Wunderground v.1.15,2013-03-14 17:22:00,
2013-03-14 13:27:00,26.7,11.0,29.79,NE,49,12.0,18.0,51,0.00,,,0.00,Wunderground v.1.15,2013-03-14 17:27:00,
2013-03-14 13:32:00,26.9,10.7,29.79,NNE,21,17.0,20.0,50,0.00,,,0.00,Wunderground v.1.15,2013-03-14 17:32:00,
2013-03-14 13:37:00,27.8,12.9,29.79,NW,319,4.0,20.0,53,0.00,,,0.00,Wunderground v.1.15,2013-03-14 17:37:00,
2013-03-14 13:42:00,28.4,13.0,29.79,NW,324,9.0,15.0,52,0.00,,,0.00,Wunderground v.1.15,2013-03-14 17:42:00,
2013-03-14 13:47:00,27.9,11.2,29.79,NW,319,2.0,18.0,49,0.00,,,0.00,Wunderground v.1.15,2013-03-14 17:47:00,
2013-03-14 13:52:00,27.8,11.5,29.79,NNW,346,12.0,12.0,50,0.00,,,0.00,Wunderground v.1.15,2013-03-14 17:52:00,
2013-03-14 13:57:00,27.9,12.1,29.80,NNW,337,2.0,12.0,51,0.00,,,0.00,Wunderground v.1.15,2013-03-14 17:57:00,
2013-03-14 14:02:00,28.2,11.5,29.80,NW,318,9.0,11.0,49,0.00,,,0.00,Wunderground v.1.15,2013-03-14 18:02:00,
2013-03-14 14:07:00,27.9,11.2,29.80,North,355,9.0,15.0,49,0.00,,,0.00,Wunderground v.1.15,2013-03-14 18:07:00,
2013-03-14 14:12:00,27.8,11.1,29.80,NNW,348,8.0,12.0,49,0.00,,,0.00,Wunderground v.1.15,2013-03-14 18:12:00,
2013-03-14 14:17:00,27.5,10.4,29.80,NNW,341,6.0,13.0,48,0.00,,,0.00,Wunderground v.1.15,2013-03-14 18:17:00,
2013-03-14 14:22:00,26.7,10.1,29.80,NNW,327,10.0,14.0,49,0.00,,,0.00,Wunderground v.1.15,2013-03-14 18:22:00,
2013-03-14 14:27:00,26.1,10.0,29.80,NNW,332,15.0,19.0,50,0.00,,,0.00,Wunderground v.1.15,2013-03-14 18:27:00,
2013-03-14 14:32:00,26.3,10.6,29.80,NW,323,9.0,9.0,51,0.00,,,0.00,Wunderground v.1.15,2013-03-14 18:32:00,
2013-03-14 14:37:00,26.1,10.4,29.80,NW,321,6.0,12.0,51,0.00,,,0.00,Wunderground v.1.15,2013-03-14 18:37:00,
2013-03-14 14:43:00,26.0,9.9,29.81,NW,313,4.0,7.0,50,0.00,,,0.00,Wunderground v.1.15,2013-03-14 18:43:00,
2013-03-14 14:48:00,25.6,8.6,29.81,NNE,32,8.0,20.0,48,0.00,,,0.00,Wunderground v.1.15,2013-03-14 18:48:00,
2013-03-14 14:53:00,25.3,8.3,29.81,NW,317,10.0,21.0,48,0.00,,,0.00,Wunderground v.1.15,2013-03-14 18:53:00,
2013-03-14 14:58:00,24.8,8.8,29.82,North,355,7.0,21.0,50,0.00,,,0.00,Wunderground v.1.15,2013-03-14 18:58:00,
2013-03-14 15:03:00,24.1,6.7,29.82,NW,305,5.0,14.0,47,0.00,,,0.00,Wunderground v.1.15,2013-03-14 19:03:00,
2013-03-14 15:08:00,23.9,7.5,29.82,NW,324,6.0,16.0,49,0.00,,,0.00,Wunderground v.1.15,2013-03-14 19:08:00,
2013-03-14 15:13:00,23.9,7.9,29.83,NW,321,7.0,13.0,50,0.00,,,0.00,Wunderground v.1.15,2013-03-14 19:13:00,
2013-03-14 15:18:00,23.6,7.2,29.83,NW,317,10.0,15.0,49,0.00,,,0.00,Wunderground v.1.15,2013-03-14 19:18:00,
2013-03-14 15:23:00,23.5,7.1,29.83,NNW,345,5.0,17.0,49,0.00,,,0.00,Wunderground v.1.15,2013-03-14 19:23:00,
2013-03-14 15:28:00,23.6,7.2,29.83,NW,326,3.0,17.0,49,0.00,,,0.00,Wunderground v.1.15,2013-03-14 19:28:00,
2013-03-14 15:33:00,23.5,7.1,29.83,NNW,346,5.0,19.0,49,0.00,,,0.00,Wunderground v.1.15,2013-03-14 19:33:00,
2013-03-14 15:38:00,23.3,6.9,29.83,NW,319,10.0,23.0,49,0.00,,,0.00,Wunderground v.1.15,2013-03-14 19:38:00,
2013-03-14 15:43:00,23.5,7.6,29.84,NNW,331,9.0,10.0,50,0.00,,,0.00,Wunderground v.1.15,2013-03-14 19:43:00,
2013-03-14 15:48:00,23.5,7.6,29.84,NNW,330,2.0,14.0,50,0.00,,,0.00,Wunderground v.1.15,2013-03-14 19:48:00,
2013-03-14 15:54:00,23.5,7.6,29.84,NW,323,5.0,11.0,50,0.00,,,0.00,Wunderground v.1.15,2013-03-14 19:54:00,
2013-03-14 15:59:00,23.5,7.1,29.84,NNW,327,13.0,16.0,49,0.00,,,0.00,Wunderground v.1.15,2013-03-14 19:59:00,
2013-03-14 16:04:00,23.3,7.4,29.84,NW,307,4.0,18.0,50,0.00,,,0.00,Wunderground v.1.15,2013-03-14 20:04:00,
2013-03-14 16:09:00,23.3,6.5,29.84,NW,315,5.0,18.0,48,0.00,,,0.00,Wunderground v.1.15,2013-03-14 20:09:00,
2013-03-14 16:14:00,23.5,7.1,29.85,NNW,331,9.0,9.0,49,0.00,,,0.00,Wunderground v.1.15,2013-03-14 20:14:00,
2013-03-14 16:19:00,23.3,6.5,29.85,NW,311,3.0,19.0,48,0.00,,,0.00,Wunderground v.1.15,2013-03-14 20:19:00,
2013-03-14 16:24:00,23.6,7.2,29.85,North,355,3.0,14.0,49,0.00,,,0.00,Wunderground v.1.15,2013-03-14 20:24:00,
2013-03-14 16:29:00,23.8,6.9,29.85,NNW,347,6.0,14.0,48,0.00,,,0.00,Wunderground v.1.15,2013-03-14 20:29:00,
2013-03-14 16:34:00,23.6,6.8,29.85,NNW,338,2.0,18.0,48,0.00,,,0.00,Wunderground v.1.15,2013-03-14 20:34:00,
2013-03-14 16:39:00,23.2,5.9,29.85,NNW,340,6.0,19.0,47,0.00,,,0.00,Wunderground v.1.15,2013-03-14 20:39:00,
2013-03-14 16:44:00,23.2,6.8,29.85,NW,325,9.0,21.0,49,0.00,,,0.00,Wunderground v.1.15,2013-03-14 20:44:00,
2013-03-14 16:49:00,23.3,7.4,29.85,WNW,295,2.0,21.0,50,0.00,,,0.00,Wunderground v.1.15,2013-03-14 20:49:00,
2013-03-14 16:54:00,23.2,8.2,29.85,NW,304,3.0,17.0,52,0.00,,,0.00,Wunderground v.1.15,2013-03-14 20:54:00,
2013-03-14 16:59:00,22.7,7.7,29.86,NW,319,2.0,17.0,52,0.00,,,0.00,Wunderground v.1.15,2013-03-14 20:59:00,
2013-03-14 17:04:00,22.4,8.7,29.86,NNW,336,13.0,13.0,55,0.00,,,0.00,Wunderground v.1.15,2013-03-14 21:04:00,
2013-03-14 17:09:00,22.1,8.4,29.86,NW,313,12.0,15.0,55,0.00,,,0.00,Wunderground v.1.15,2013-03-14 21:09:00,
2013-03-14 17:15:00,21.9,8.6,29.87,NNW,343,5.0,13.0,56,0.00,,,0.00,Wunderground v.1.15,2013-03-14 21:15:00,
2013-03-14 17:20:00,21.9,8.6,29.87,North,350,3.0,5.0,56,0.00,,,0.00,Wunderground v.1.15,2013-03-14 21:20:00,
2013-03-14 17:25:00,21.8,8.1,29.87,NNW,340,4.0,10.0,55,0.00,,,0.00,Wunderground v.1.15,2013-03-14 21:25:00,
2013-03-14 17:30:00,21.8,8.5,29.88,NW,319,3.0,4.0,56,0.00,,,0.00,Wunderground v.1.15,2013-03-14 21:30:00,
2013-03-14 17:35:00,21.6,7.9,29.88,NNW,332,2.0,12.0,55,0.00,,,0.00,Wunderground v.1.15,2013-03-14 21:35:00,
2013-03-14 17:40:00,21.6,7.9,29.88,North,355,3.0,5.0,55,0.00,,,0.00,Wunderground v.1.15,2013-03-14 21:40:00,
2013-03-14 17:45:00,21.6,6.7,29.88,NW,323,4.0,14.0,52,0.00,,,0.00,Wunderground v.1.15,2013-03-14 21:45:00,
2013-03-14 17:50:00,21.6,7.1,29.88,NW,323,1.0,5.0,53,0.00,,,0.00,Wunderground v.1.15,2013-03-14 21:50:00,
2013-03-14 17:55:00,21.8,6.8,29.88,NW,320,3.0,13.0,52,0.00,,,0.00,Wunderground v.1.15,2013-03-14 21:55:00,
2013-03-14 18:00:00,21.8,6.4,29.88,NW,316,6.0,6.0,51,0.00,,,0.00,Wunderground v.1.15,2013-03-14 22:00:00,
2013-03-14 18:05:00,21.9,5.2,29.88,NNW,340,2.0,14.0,48,0.00,,,0.00,Wunderground v.1.15,2013-03-14 22:05:00,
2013-03-14 18:10:00,21.9,5.2,29.88,NNW,342,11.0,11.0,48,0.00,,,0.00,Wunderground v.1.15,2013-03-14 22:10:00,
2013-03-14 18:15:00,21.9,5.2,29.88,NNW,338,6.0,17.0,48,0.00,,,0.00,Wunderground v.1.15,2013-03-14 22:15:00,
2013-03-14 18:20:00,21.9,6.5,29.88,NW,321,7.0,7.0,51,0.00,,,0.00,Wunderground v.1.15,2013-03-14 22:20:00,
2013-03-14 18:25:00,21.8,6.4,29.88,NW,317,10.0,13.0,51,0.00,,,0.00,Wunderground v.1.15,2013-03-14 22:25:00,
2013-03-14 18:30:00,21.6,6.2,29.88,NW,326,2.0,6.0,51,0.00,,,0.00,Wunderground v.1.15,2013-03-14 22:30:00,
2013-03-14 18:35:00,21.6,5.8,29.88,NNW,338,5.0,11.0,50,0.00,,,0.00,Wunderground v.1.15,2013-03-14 22:35:00,
2013-03-14 18:40:00,21.6,6.7,29.88,NNW,336,3.0,5.0,52,0.00,,,0.00,Wunderground v.1.15,2013-03-14 22:40:00,
2013-03-14 18:45:00,21.6,6.7,29.89,NNW,346,5.0,10.0,52,0.00,,,0.00,Wunderground v.1.15,2013-03-14 22:45:00,
2013-03-14 18:50:00,21.6,5.8,29.89,NW,317,6.0,7.0,50,0.00,,,0.00,Wunderground v.1.15,2013-03-14 22:50:00,
2013-03-14 18:55:00,21.6,6.7,29.89,NNW,348,2.0,13.0,52,0.00,,,0.00,Wunderground v.1.15,2013-03-14 22:55:00,
2013-03-14 19:00:00,21.6,6.2,29.89,NNW,327,4.0,5.0,51,0.00,,,0.00,Wunderground v.1.15,2013-03-14 23:00:00,
2013-03-14 19:05:00,21.8,7.3,29.89,NNW,327,5.0,12.0,53,0.00,,,0.00,Wunderground v.1.15,2013-03-14 23:05:00,
2013-03-14 19:10:00,21.6,6.2,29.89,NNW,333,10.0,10.0,51,0.00,,,0.00,Wunderground v.1.15,2013-03-14 23:10:00,
2013-03-14 19:15:00,21.6,7.1,29.90,NW,316,6.0,15.0,53,0.00,,,0.00,Wunderground v.1.15,2013-03-14 23:15:00,
2013-03-14 19:20:00,21.6,7.1,29.90,NNW,329,0.0,5.0,53,0.00,,,0.00,Wunderground v.1.15,2013-03-14 23:20:00,
2013-03-14 19:25:00,21.4,7.7,29.90,NNW,327,5.0,9.0,55,0.00,,,0.00,Wunderground v.1.15,2013-03-14 23:25:00,
2013-03-14 19:30:00,21.4,8.1,29.90,NW,323,9.0,9.0,56,0.00,,,0.00,Wunderground v.1.15,2013-03-14 23:30:00,
2013-03-14 19:35:00,21.3,6.8,29.90,NNW,337,12.0,17.0,53,0.00,,,0.00,Wunderground v.1.15,2013-03-14 23:35:00,
2013-03-14 19:40:00,21.3,8.0,29.90,NNW,328,2.0,7.0,56,0.00,,,0.00,Wunderground v.1.15,2013-03-14 23:40:00,
2013-03-14 19:45:00,21.3,7.6,29.90,NNW,327,10.0,10.0,55,0.00,,,0.00,Wunderground v.1.15,2013-03-14 23:45:00,
2013-03-14 19:50:00,21.3,7.6,29.90,NNW,344,3.0,6.0,55,0.00,,,0.00,Wunderground v.1.15,2013-03-14 23:50:00,
2013-03-14 19:55:00,21.4,7.7,29.90,NW,325,3.0,12.0,55,0.00,,,0.00,Wunderground v.1.15,2013-03-14 23:55:00,
2013-03-14 20:01:00,21.4,8.1,29.90,NNW,335,6.0,6.0,56,0.00,,,0.00,Wunderground v.1.15,2013-03-15 00:01:00,
2013-03-14 20:07:00,21.3,7.6,29.90,NNW,327,2.0,12.0,55,0.00,,,0.00,Wunderground v.1.15,2013-03-15 00:07:00,
2013-03-14 20:12:00,21.3,8.0,29.90,NNW,337,2.0,10.0,56,0.00,,,0.00,Wunderground v.1.15,2013-03-15 00:12:00,
2013-03-14 20:17:00,21.3,8.8,29.90,North,9,11.0,11.0,58,0.00,,,0.00,Wunderground v.1.15,2013-03-15 00:17:00,
2013-03-14 20:22:00,21.3,8.8,29.90,NNW,340,3.0,7.0,58,0.00,,,0.00,Wunderground v.1.15,2013-03-15 00:22:00,
2013-03-14 20:27:00,21.3,8.8,29.91,North,360,3.0,12.0,58,0.00,,,0.00,Wunderground v.1.15,2013-03-15 00:27:00,
2013-03-14 20:32:00,21.1,9.0,29.91,North,355,1.0,10.0,59,0.00,,,0.00,Wunderground v.1.15,2013-03-15 00:32:00,
2013-03-14 20:37:00,21.0,9.3,29.91,NNW,338,1.0,10.0,60,0.00,,,0.00,Wunderground v.1.15,2013-03-15 00:37:00,
2013-03-14 20:42:00,21.0,9.3,29.91,NW,325,4.0,5.0,60,0.00,,,0.00,Wunderground v.1.15,2013-03-15 00:42:00,
2013-03-14 20:47:00,21.0,9.3,29.91,North,355,9.0,9.0,60,0.00,,,0.00,Wunderground v.1.15,2013-03-15 00:47:00,
2013-03-14 20:52:00,21.0,9.6,29.91,NNW,337,2.0,15.0,61,0.00,,,0.00,Wunderground v.1.15,2013-03-15 00:52:00,
2013-03-14 20:57:00,21.1,9.4,29.91,NNW,332,2.0,15.0,60,0.00,,,0.00,Wunderground v.1.15,2013-03-15 00:57:00,
2013-03-14 21:02:00,21.0,8.5,29.91,NNW,346,5.0,14.0,58,0.00,,,0.00,Wunderground v.1.15,2013-03-15 01:02:00,
2013-03-14 21:07:00,21.1,8.6,29.91,NNW,336,5.0,14.0,58,0.00,,,0.00,Wunderground v.1.15,2013-03-15 01:07:00,
2013-03-14 21:12:00,21.0,8.1,29.91,WNW,296,6.0,11.0,57,0.00,,,0.00,Wunderground v.1.15,2013-03-15 01:12:00,
2013-03-14 21:18:00,21.0,8.5,29.91,NW,315,4.0,12.0,58,0.00,,,0.00,Wunderground v.1.15,2013-03-15 01:18:00,
2013-03-14 21:23:00,21.0,8.5,29.91,NW,326,6.0,10.0,58,0.00,,,0.00,Wunderground v.1.15,2013-03-15 01:23:00,
2013-03-14 21:28:00,21.0,8.1,29.91,NW,318,7.0,16.0,57,0.00,,,0.00,Wunderground v.1.15,2013-03-15 01:28:00,
2013-03-14 21:33:00,20.8,9.1,29.91,NW,326,3.0,12.0,60,0.00,,,0.00,Wunderground v.1.15,2013-03-15 01:33:00,
2013-03-14 21:38:00,20.8,9.1,29.91,North,360,2.0,12.0,60,0.00,,,0.00,Wunderground v.1.15,2013-03-15 01:38:00,
2013-03-14 21:43:00,20.6,9.3,29.92,NNW,336,3.0,15.0,61,0.00,,,0.00,Wunderground v.1.15,2013-03-15 01:43:00,
2013-03-14 21:48:00,20.6,9.3,29.92,NNW,345,3.0,15.0,61,0.00,,,0.00,Wunderground v.1.15,2013-03-15 01:48:00,
2013-03-14 21:53:00,20.5,8.8,29.92,NNW,346,3.0,13.0,60,0.00,,,0.00,Wunderground v.1.15,2013-03-15 01:53:00,
2013-03-14 21:58:00,20.3,9.0,29.92,NNW,330,13.0,15.0,61,0.00,,,0.00,Wunderground v.1.15,2013-03-15 01:58:00,
2013-03-14 22:03:00,20.2,9.6,29.92,North,355,4.0,10.0,63,0.00,,,0.00,Wunderground v.1.15,2013-03-15 02:03:00,
2013-03-14 22:08:00,20.0,8.7,29.92,NW,322,2.0,14.0,61,0.00,,,0.00,Wunderground v.1.15,2013-03-15 02:08:00,
2013-03-14 22:13:00,20.0,8.0,29.92,NW,317,3.0,11.0,59,0.00,,,0.00,Wunderground v.1.15,2013-03-15 02:13:00,
2013-03-14 22:18:00,20.2,8.1,29.92,NNW,338,4.0,13.0,59,0.00,,,0.00,Wunderground v.1.15,2013-03-15 02:18:00,
2013-03-14 22:23:00,20.2,7.4,29.92,NW,313,4.0,24.0,57,0.00,,,0.00,Wunderground v.1.15,2013-03-15 02:23:00,
2013-03-14 22:28:00,20.2,7.8,29.92,NW,317,3.0,24.0,58,0.00,,,0.00,Wunderground v.1.15,2013-03-15 02:28:00,
2013-03-14 22:33:00,20.3,8.2,29.92,NE,36,7.0,14.0,59,0.00,,,0.00,Wunderground v.1.15,2013-03-15 02:33:00,
2013-03-14 22:39:00,20.2,7.4,29.92,NW,323,8.0,17.0,57,0.00,,,0.00,Wunderground v.1.15,2013-03-15 02:39:00,
2013-03-14 22:44:00,20.0,6.8,29.92,NNW,339,4.0,14.0,56,0.00,,,0.00,Wunderground v.1.15,2013-03-15 02:44:00,
2013-03-14 22:49:00,19.9,6.7,29.92,NNW,336,9.0,22.0,56,0.00,,,0.00,Wunderground v.1.15,2013-03-15 02:49:00,
2013-03-14 22:54:00,19.9,6.7,29.92,NW,320,9.0,14.0,56,0.00,,,0.00,Wunderground v.1.15,2013-03-15 02:54:00,
2013-03-14 22:59:00,19.9,6.3,29.93,NNW,344,3.0,14.0,55,0.00,,,0.00,Wunderground v.1.15,2013-03-15 02:59:00,
2013-03-14 23:04:00,19.9,5.9,29.93,NNW,327,4.0,12.0,54,0.00,,,0.00,Wunderground v.1.15,2013-03-15 03:04:00,
2013-03-14 23:09:00,19.9,5.5,29.93,NW,325,13.0,25.0,53,0.00,,,0.00,Wunderground v.1.15,2013-03-15 03:09:00,
2013-03-14 23:14:00,19.7,4.5,29.93,NW,324,15.0,28.0,51,0.00,,,0.00,Wunderground v.1.15,2013-03-15 03:14:00,
2013-03-14 23:19:00,19.5,5.5,29.93,NNW,346,6.0,28.0,54,0.00,,,0.00,Wunderground v.1.15,2013-03-15 03:19:00,
2013-03-14 23:24:00,19.5,4.7,29.93,NW,323,5.0,20.0,52,0.00,,,0.00,Wunderground v.1.15,2013-03-15 03:24:00,
2013-03-14 23:29:00,19.5,4.7,29.93,West,273,8.0,24.0,52,0.00,,,0.00,Wunderground v.1.15,2013-03-15 03:29:00,
2013-03-14 23:34:00,19.4,4.6,29.93,NNW,345,11.0,22.0,52,0.00,,,0.00,Wunderground v.1.15,2013-03-15 03:34:00,
2013-03-14 23:39:00,19.2,4.4,29.93,NNW,336,8.0,23.0,52,0.00,,,0.00,Wunderground v.1.15,2013-03-15 03:39:00,
2013-03-14 23:45:00,19.1,3.9,29.93,NW,325,3.0,17.0,51,0.00,,,0.00,Wunderground v.1.15,2013-03-15 03:45:00,
2013-03-14 23:50:00,19.1,3.9,29.93,NNW,341,6.0,15.0,51,0.00,,,0.00,Wunderground v.1.15,2013-03-15 03:50:00,
2013-03-14 23:55:00,18.9,3.3,29.93,NNW,331,4.0,15.0,50,0.00,,,0.00,Wunderground v.1.15,2013-03-15 03:55:00,